Time;durP1;ratioP1;P1;durP2;ratioP2;P2;SDS_P1;SDS_P2;PMS_P1;PMS_P2;Temp;Humidity;BMP_temperature;BMP_pressure;BME280_temperature;BME280_humidity;BME280_pressure;Samples;Min_cycle;Max_cycle;Signal;HPM_P1;HPM_P2
2021/09/12 00:00:43;;;;;;;3.40;3.10;;;21.60;99.90;;;;;;5039532;28;20168;-79
2021/09/12 00:03:09;;;;;;;5.67;3.53;;;21.60;99.90;;;;;;5074836;28;21279;-79
2021/09/12 00:05:35;;;;;;;4.57;2.50;;;21.60;99.90;;;;;;5074461;28;20557;-80
2021/09/12 00:08:02;;;;;;;3.50;2.77;;;21.60;99.90;;;;;;5074375;28;20160;-80
2021/09/12 00:10:28;;;;;;;3.37;2.90;;;21.60;99.90;;;;;;5074556;28;20204;-80
2021/09/12 00:12:53;;;;;;;3.03;2.50;;;21.60;99.90;;;;;;5074626;28;20661;-79
2021/09/12 00:15:19;;;;;;;2.80;2.53;;;21.60;99.90;;;;;;5074887;28;20569;-79
2021/09/12 00:17:46;;;;;;;3.20;2.97;;;21.60;99.90;;;;;;5090127;28;20232;-79
2021/09/12 00:20:12;;;;;;;2.73;1.77;;;21.60;99.90;;;;;;5075419;28;20948;-79
2021/09/12 00:22:38;;;;;;;2.37;2.13;;;21.60;99.90;;;;;;5075452;28;20566;-79
2021/09/12 00:25:05;;;;;;;2.43;2.23;;;21.60;99.90;;;;;;5075815;28;21170;-79
2021/09/12 00:27:31;;;;;;;3.53;2.90;;;21.50;99.90;;;;;;5077614;28;20621;-80
2021/09/12 00:29:57;;;;;;;2.73;2.53;;;21.50;99.90;;;;;;5075894;28;21052;-79
2021/09/12 00:32:24;;;;;;;3.10;2.43;;;21.50;99.90;;;;;;5076696;28;20590;-79
2021/09/12 00:34:50;;;;;;;3.10;2.80;;;21.50;99.90;;;;;;5075047;28;21110;-79
2021/09/12 00:37:15;;;;;;;3.43;2.67;;;21.50;99.90;;;;;;5073462;28;20579;-80
2021/09/12 00:39:41;;;;;;;2.30;2.03;;;21.50;99.90;;;;;;5074212;28;20697;-79
2021/09/12 00:42:07;;;;;;;2.73;2.53;;;21.50;99.90;;;;;;5074160;28;20198;-80
2021/09/12 00:44:32;;;;;;;2.27;2.07;;;21.50;99.90;;;;;;5073861;28;20179;-80
2021/09/12 00:47:11;;;;;;;4.27;2.70;;;21.50;99.90;;;;;;5073193;28;20191;-79
2021/09/12 00:49:37;;;;;;;2.80;2.20;;;21.50;99.90;;;;;;5065259;28;20195;-79
2021/09/12 00:52:07;;;;;;;3.57;2.63;;;21.50;99.90;;;;;;5079660;28;20563;-79
2021/09/12 00:54:34;;;;;;;4.43;2.47;;;21.50;99.90;;;;;;5055443;28;20582;-79
2021/09/12 00:57:01;;;;;;;3.00;1.73;;;21.50;99.90;;;;;;5055379;28;20997;-79
2021/09/12 00:59:28;;;;;;;2.57;2.20;;;21.50;99.90;;;;;;5072139;28;20569;-80
2021/09/12 01:01:56;;;;;;;4.03;3.00;;;21.50;99.90;;;;;;5055484;28;20579;-80
2021/09/12 01:04:22;;;;;;;2.43;2.23;;;21.40;99.90;;;;;;5076726;28;20590;-80
2021/09/12 01:06:49;;;;;;;2.33;2.10;;;21.40;99.90;;;;;;5075655;28;21000;-80
2021/09/12 01:09:14;;;;;;;3.50;2.53;;;21.40;99.90;;;;;;5056775;28;20660;-80
2021/09/12 01:11:40;;;;;;;2.53;2.33;;;21.40;99.90;;;;;;5074668;28;20566;-79
2021/09/12 01:14:06;;;;;;;3.83;2.93;;;21.50;99.90;;;;;;5073837;28;20751;-81
2021/09/12 01:16:32;;;;;;;2.50;2.30;;;21.50;99.90;;;;;;5072555;28;20230;-81
2021/09/12 01:18:57;;;;;;;2.33;2.03;;;21.50;99.90;;;;;;5088086;28;20580;-81
2021/09/12 01:21:26;;;;;;;2.30;2.07;;;21.40;99.90;;;;;;5072422;28;20203;-80
2021/09/12 01:23:52;;;;;;;2.67;2.47;;;21.40;99.90;;;;;;5072661;28;20243;-80
2021/09/12 01:26:25;;;;;;;3.90;2.87;;;21.40;99.90;;;;;;5072247;28;20636;-80
2021/09/12 01:28:51;;;;;;;2.40;2.07;;;21.40;99.90;;;;;;5072614;28;20200;-80
2021/09/12 01:31:25;;;;;;;3.33;2.53;;;21.40;99.90;;;;;;5072951;28;20626;-80
2021/09/12 01:33:50;;;;;;;2.60;2.40;;;21.40;99.90;;;;;;5058030;28;20635;-80
2021/09/12 01:36:17;;;;;;;2.90;2.37;;;21.40;99.90;;;;;;5076194;28;20594;-80
2021/09/12 01:38:44;;;;;;;2.33;2.03;;;21.40;99.90;;;;;;5074519;28;20165;-82
2021/09/12 01:41:10;;;;;;;3.83;2.27;;;21.30;99.90;;;;;;5058686;28;20581;-83
2021/09/12 01:43:43;;;;;;;3.60;2.60;;;21.30;99.90;;;;;;5088981;28;20963;-83
2021/09/12 01:46:09;;;;;;;3.00;2.70;;;21.30;99.90;;;;;;5072469;28;20609;-81
2021/09/12 01:48:35;;;;;;;3.60;2.23;;;21.20;99.90;;;;;;5072140;28;20570;-83
2021/09/12 01:51:01;;;;;;;4.23;2.80;;;21.20;99.90;;;;;;5073139;28;20173;-83
2021/09/12 01:53:26;;;;;;;4.47;2.70;;;21.10;99.90;;;;;;5056298;28;20168;-82
2021/09/12 01:55:52;;;;;;;2.10;1.80;;;21.00;99.90;;;;;;5055581;28;20599;-82
2021/09/12 01:58:18;;;;;;;2.57;2.00;;;21.00;99.90;;;;;;5087811;28;20168;-81
2021/09/12 02:00:43;;;;;;;3.27;2.30;;;20.90;99.90;;;;;;5072617;28;20172;-81
2021/09/12 02:03:09;;;;;;;3.13;2.23;;;20.80;99.90;;;;;;5072488;28;20230;-82
2021/09/12 02:05:35;;;;;;;2.30;2.10;;;20.70;99.90;;;;;;5072751;28;20172;-81
2021/09/12 02:08:00;;;;;;;2.30;2.07;;;20.60;99.90;;;;;;5072852;28;20176;-82
2021/09/12 02:10:28;;;;;;;2.30;2.10;;;20.60;99.90;;;;;;5072766;28;20622;-83
2021/09/12 02:12:54;;;;;;;2.33;1.97;;;20.50;99.90;;;;;;5074045;28;20570;-82
2021/09/12 02:15:20;;;;;;;2.40;2.20;;;20.40;99.90;;;;;;5072543;28;20590;-83
2021/09/12 02:17:46;;;;;;;3.20;2.13;;;20.30;99.90;;;;;;5076038;28;20219;-82
2021/09/12 02:20:12;;;;;;;4.13;2.67;;;20.30;99.90;;;;;;5073746;28;20176;-82
2021/09/12 02:22:37;;;;;;;2.70;2.50;;;20.20;99.90;;;;;;5071960;28;20566;-83
2021/09/12 02:25:03;;;;;;;3.27;2.57;;;20.20;99.90;;;;;;5072783;28;20204;-82
2021/09/12 02:27:29;;;;;;;4.93;2.33;;;20.10;99.90;;;;;;5056472;28;20262;-83
2021/09/12 02:29:55;;;;;;;3.27;2.20;;;20.10;99.90;;;;;;5073688;28;21015;-82
2021/09/12 02:32:20;;;;;;;3.10;2.27;;;20.10;99.90;;;;;;5075044;28;20251;-82
2021/09/12 02:34:46;;;;;;;2.43;2.23;;;20.10;99.90;;;;;;5074956;28;20180;-81
2021/09/12 02:37:12;;;;;;;2.73;1.90;;;20.10;99.90;;;;;;5074886;28;20195;-81
2021/09/12 02:39:38;;;;;;;3.77;2.63;;;20.10;99.90;;;;;;5074689;28;20175;-82
2021/09/12 02:42:04;;;;;;;2.73;2.30;;;20.20;99.90;;;;;;5072937;28;20179;-82
2021/09/12 02:44:30;;;;;;;3.83;2.80;;;20.20;99.90;;;;;;5072979;28;20695;-83
2021/09/12 02:46:55;;;;;;;2.80;2.60;;;20.20;99.90;;;;;;5037589;28;20749;-82
2021/09/12 02:49:21;;;;;;;2.20;2.00;;;20.30;99.90;;;;;;5071363;28;20254;-82
2021/09/12 02:51:47;;;;;;;4.53;2.40;;;20.30;99.90;;;;;;5073302;28;20202;-82
2021/09/12 02:54:12;;;;;;;2.77;2.10;;;20.30;99.90;;;;;;5073800;28;20202;-83
2021/09/12 02:56:38;;;;;;;2.30;2.10;;;20.30;99.90;;;;;;5076526;28;20282;-82
2021/09/12 02:59:04;;;;;;;2.70;1.97;;;20.40;99.90;;;;;;5072305;28;20172;-83
2021/09/12 03:01:29;;;;;;;5.20;2.10;;;20.40;99.90;;;;;;5072647;28;20172;-83
2021/09/12 03:03:55;;;;;;;2.30;2.10;;;20.40;99.90;;;;;;5072421;28;20581;-83
2021/09/12 03:06:21;;;;;;;2.63;2.17;;;20.40;99.90;;;;;;5073244;28;20219;-83
2021/09/12 03:08:46;;;;;;;2.20;2.00;;;20.40;99.90;;;;;;5072730;28;20250;-83
2021/09/12 03:11:12;;;;;;;3.90;2.40;;;20.40;99.90;;;;;;5073420;28;20175;-83
2021/09/12 03:13:38;;;;;;;5.00;2.73;;;20.40;99.90;;;;;;5073008;28;20171;-83
2021/09/12 03:16:04;;;;;;;2.13;1.93;;;20.40;99.90;;;;;;5071600;28;20192;-83
2021/09/12 03:18:30;;;;;;;2.97;1.77;;;20.30;99.90;;;;;;5072901;28;20309;-83
2021/09/12 03:20:55;;;;;;;3.00;2.40;;;20.30;99.90;;;;;;5070987;28;20596;-82
2021/09/12 03:23:21;;;;;;;5.03;2.10;;;20.30;99.90;;;;;;5075058;28;20179;-81
2021/09/12 03:25:47;;;;;;;3.10;2.30;;;20.30;99.90;;;;;;5074356;28;20735;-82
2021/09/12 03:28:13;;;;;;;2.70;2.23;;;20.20;99.90;;;;;;5076020;28;20160;-82
2021/09/12 03:30:39;;;;;;;3.17;2.27;;;20.20;99.90;;;;;;5078609;28;20192;-83
2021/09/12 03:33:05;;;;;;;2.80;2.50;;;20.20;99.90;;;;;;5083704;28;20561;-82
2021/09/12 03:35:31;;;;;;;2.00;1.90;;;20.20;99.90;;;;;;5079416;28;20172;-83
2021/09/12 03:37:56;;;;;;;3.27;2.20;;;20.10;99.90;;;;;;5078676;28;20246;-83
2021/09/12 03:40:22;;;;;;;2.80;2.60;;;20.10;99.90;;;;;;5058766;28;20187;-83
2021/09/12 03:42:48;;;;;;;3.40;2.07;;;20.10;99.90;;;;;;5076455;28;20183;-83
2021/09/12 03:45:14;;;;;;;3.30;3.00;;;20.10;99.90;;;;;;5077216;28;20180;-83
2021/09/12 03:47:39;;;;;;;2.47;2.27;;;20.10;99.90;;;;;;5060072;28;20203;-82
2021/09/12 03:50:05;;;;;;;2.63;2.30;;;20.00;99.90;;;;;;5076725;28;20196;-83
2021/09/12 03:52:31;;;;;;;2.40;2.20;;;20.00;99.90;;;;;;5077449;28;20991;-83
2021/09/12 03:54:57;;;;;;;3.00;1.97;;;20.00;99.90;;;;;;5078247;28;20571;-83
2021/09/12 03:57:23;;;;;;;3.30;2.30;;;20.00;99.90;;;;;;5073721;28;20533;-82
2021/09/12 03:59:51;;;;;;;3.43;2.93;;;20.00;99.90;;;;;;5075377;28;20172;-83
2021/09/12 04:02:18;;;;;;;2.60;2.40;;;20.00;99.90;;;;;;5074258;28;21153;-83
2021/09/12 04:04:43;;;;;;;3.40;2.67;;;19.90;99.90;;;;;;5074491;28;20674;-82
2021/09/12 04:07:09;;;;;;;3.33;2.93;;;19.90;99.90;;;;;;5074549;28;20614;-82
2021/09/12 04:09:35;;;;;;;4.60;2.80;;;19.90;99.90;;;;;;5078734;28;20241;-83
2021/09/12 04:12:00;;;;;;;5.10;3.30;;;19.80;99.90;;;;;;5074818;28;20208;-83
2021/09/12 04:14:26;;;;;;;4.63;3.30;;;19.80;99.90;;;;;;5075620;28;20209;-82
2021/09/12 04:16:52;;;;;;;2.80;2.50;;;19.80;99.90;;;;;;5075289;28;20610;-82
2021/09/12 04:19:18;;;;;;;3.13;2.80;;;19.70;99.90;;;;;;5075239;28;20195;-83
2021/09/12 04:21:44;;;;;;;3.10;2.80;;;19.70;99.90;;;;;;5058605;28;20679;-83
2021/09/12 04:24:10;;;;;;;2.90;2.70;;;19.60;99.90;;;;;;5093617;28;20575;-81
2021/09/12 04:26:36;;;;;;;4.27;3.17;;;19.60;99.90;;;;;;5079023;28;20624;-82
2021/09/12 04:29:01;;;;;;;3.30;3.00;;;19.50;99.90;;;;;;5076113;28;20195;-82
2021/09/12 04:31:28;;;;;;;4.20;3.80;;;19.50;99.90;;;;;;5060249;28;20259;-82
2021/09/12 04:33:54;;;;;;;3.33;3.03;;;19.40;99.90;;;;;;5078126;28;20571;-81
2021/09/12 04:36:19;;;;;;;3.33;3.03;;;19.40;99.90;;;;;;5077669;28;21179;-82
2021/09/12 04:38:45;;;;;;;8.03;3.17;;;19.30;99.90;;;;;;5076057;28;20168;-82
2021/09/12 04:41:11;;;;;;;4.40;4.00;;;19.20;99.90;;;;;;5076398;28;20641;-82
2021/09/12 04:43:36;;;;;;;3.97;3.17;;;19.20;99.90;;;;;;5075277;28;20655;-81
2021/09/12 04:46:02;;;;;;;4.03;3.63;;;19.20;99.90;;;;;;5079136;28;20188;-82
2021/09/12 04:48:28;;;;;;;3.93;3.53;;;19.10;99.90;;;;;;5074349;28;20541;-82
2021/09/12 04:50:55;;;;;;;3.40;3.10;;;19.10;99.90;;;;;;5074104;28;20164;-81
2021/09/12 04:53:21;;;;;;;3.67;2.97;;;19.00;99.90;;;;;;5074268;28;20172;-83
2021/09/12 04:55:47;;;;;;;4.00;3.00;;;19.10;99.90;;;;;;5056108;28;20566;-82
2021/09/12 04:58:13;;;;;;;4.83;3.43;;;19.00;99.90;;;;;;5056075;28;20579;-83
2021/09/12 05:00:39;;;;;;;2.90;2.60;;;19.00;99.90;;;;;;5075116;28;20600;-83
2021/09/12 05:03:05;;;;;;;6.27;3.43;;;18.90;99.90;;;;;;5057557;28;21128;-82
2021/09/12 05:05:31;;;;;;;6.20;4.00;;;18.90;99.90;;;;;;5074695;28;20566;-81
2021/09/12 05:07:56;;;;;;;4.53;4.13;;;18.80;99.90;;;;;;5074475;28;20180;-83
2021/09/12 05:10:23;;;;;;;6.40;3.57;;;18.80;99.90;;;;;;5075432;28;20242;-81
2021/09/12 05:12:48;;;;;;;3.70;3.40;;;18.80;99.90;;;;;;5086897;22;20218;-75
2021/09/12 05:15:14;;;;;;;3.93;3.63;;;18.80;99.90;;;;;;5016083;28;20592;-75
2021/09/12 05:17:40;;;;;;;5.87;3.10;;;18.80;99.90;;;;;;5007837;28;20937;-75
2021/09/12 05:20:06;;;;;;;3.97;3.57;;;18.70;99.90;;;;;;5022022;28;20184;-75
2021/09/12 05:22:34;;;;;;;3.93;3.63;;;18.70;99.90;;;;;;5019795;28;20210;-75
2021/09/12 05:25:00;;;;;;;3.40;2.73;;;18.70;99.90;;;;;;5010570;28;20939;-74
2021/09/12 05:27:26;;;;;;;3.30;2.90;;;18.70;99.90;;;;;;5012638;28;20593;-74
2021/09/12 05:29:52;;;;;;;3.87;2.90;;;18.60;99.90;;;;;;5019189;28;20648;-75
2021/09/12 05:32:18;;;;;;;3.90;3.50;;;18.70;99.90;;;;;;5012633;28;21109;-75
2021/09/12 05:34:44;;;;;;;3.70;3.30;;;18.70;99.90;;;;;;4991349;28;20177;-75
2021/09/12 05:37:10;;;;;;;5.00;3.77;;;18.70;99.90;;;;;;5012370;28;20604;-75
2021/09/12 05:39:35;;;;;;;6.60;3.80;;;18.70;99.90;;;;;;5012948;28;20727;-75
2021/09/12 05:42:01;;;;;;;5.87;3.83;;;18.70;99.90;;;;;;5016333;28;20206;-75
2021/09/12 05:44:27;;;;;;;4.60;3.27;;;18.70;99.90;;;;;;4994336;28;20201;-75
2021/09/12 05:46:53;;;;;;;4.43;3.53;;;18.70;99.90;;;;;;5012183;28;20577;-75
2021/09/12 05:49:19;;;;;;;6.27;3.50;;;18.70;99.90;;;;;;5012190;28;20201;-75
2021/09/12 05:51:46;;;;;;;3.80;3.50;;;18.70;99.90;;;;;;5012461;28;20166;-74
2021/09/12 05:54:12;;;;;;;3.83;3.17;;;18.70;99.90;;;;;;5012336;28;20717;-75
2021/09/12 05:56:37;;;;;;;6.07;3.47;;;18.80;99.90;;;;;;5012334;28;20593;-75
2021/09/12 05:59:03;;;;;;;5.20;3.90;;;18.90;99.90;;;;;;5012195;28;20182;-75
2021/09/12 06:01:29;;;;;;;8.23;3.30;;;19.00;99.90;;;;;;4994379;28;20618;-75
2021/09/12 06:03:55;;;;;;;4.87;3.50;;;19.00;99.90;;;;;;4993854;28;20194;-75
2021/09/12 06:06:21;;;;;;;3.50;3.20;;;19.10;99.90;;;;;;5011837;28;20572;-75
2021/09/12 06:08:46;;;;;;;3.70;2.97;;;19.20;99.90;;;;;;5010142;28;20592;-74
2021/09/12 06:11:12;;;;;;;4.20;3.80;;;19.20;99.90;;;;;;5011915;28;20970;-75
2021/09/12 06:13:38;;;;;;;4.00;3.60;;;19.30;99.90;;;;;;5012042;28;20202;-75
2021/09/12 06:16:06;;;;;;;3.17;2.87;;;19.40;99.90;;;;;;5012333;28;20174;-75
2021/09/12 06:18:32;;;;;;;3.47;3.07;;;19.40;99.90;;;;;;5014595;28;20934;-75
2021/09/12 06:20:58;;;;;;;3.80;3.20;;;19.50;99.90;;;;;;5011524;28;20656;-74
2021/09/12 06:23:24;;;;;;;3.70;3.40;;;19.50;99.90;;;;;;5011819;28;20701;-74
2021/09/12 06:25:50;;;;;;;4.90;3.47;;;19.60;99.90;;;;;;5010830;28;21119;-74
2021/09/12 06:28:16;;;;;;;3.93;3.53;;;19.60;99.90;;;;;;5010315;28;20581;-74
2021/09/12 06:30:43;;;;;;;5.10;3.40;;;19.70;99.90;;;;;;5011125;28;20198;-74
2021/09/12 06:33:09;;;;;;;3.73;3.43;;;19.70;99.90;;;;;;5010217;28;20616;-74
2021/09/12 06:35:35;;;;;;;4.87;2.80;;;19.80;99.90;;;;;;5011439;28;21128;-74
2021/09/12 06:38:00;;;;;;;4.33;3.13;;;19.90;99.90;;;;;;4998333;28;20181;-74
2021/09/12 06:40:30;;;;;;;5.50;3.53;;;20.00;99.90;;;;;;5012242;28;20170;-74
2021/09/12 06:42:57;;;;;;;3.90;3.20;;;20.00;99.90;;;;;;5008484;28;20350;-74
2021/09/12 06:45:23;;;;;;;3.23;2.90;;;20.10;99.90;;;;;;5010052;28;20581;-74
2021/09/12 06:47:49;;;;;;;3.77;2.90;;;20.10;99.90;;;;;;4995544;28;20593;-75
2021/09/12 06:50:15;;;;;;;3.40;2.97;;;20.20;99.90;;;;;;5011345;28;20198;-74
2021/09/12 06:52:40;;;;;;;4.30;2.93;;;20.20;99.90;;;;;;5011283;28;20186;-74
2021/09/12 06:55:06;;;;;;;3.63;2.63;;;20.30;99.90;;;;;;5015384;28;20177;-74
2021/09/12 06:57:32;;;;;;;3.90;3.40;;;20.40;99.90;;;;;;5013361;28;20174;-74
2021/09/12 06:59:57;;;;;;;3.00;2.70;;;20.50;99.90;;;;;;5015383;28;20668;-77
2021/09/12 07:02:23;;;;;;;3.90;2.90;;;20.60;99.90;;;;;;5022963;28;20174;-77
2021/09/12 07:04:49;;;;;;;3.90;3.20;;;20.70;99.90;;;;;;5018047;28;20166;-78
2021/09/12 07:07:15;;;;;;;4.07;3.33;;;20.90;99.90;;;;;;5017985;28;20189;-78
2021/09/12 07:09:40;;;;;;;6.70;3.00;;;21.00;99.90;;;;;;4985177;28;20198;-78
2021/09/12 07:12:06;;;;;;;4.20;3.20;;;21.10;99.90;;;;;;5018136;28;20169;-78
2021/09/12 07:14:32;;;;;;;5.13;3.20;;;21.30;99.90;;;;;;5017941;28;20193;-77
2021/09/12 07:16:58;;;;;;;5.17;3.43;;;21.40;99.90;;;;;;5004211;28;20604;-77
2021/09/12 07:19:23;;;;;;;3.97;3.40;;;21.50;99.90;;;;;;4999844;28;20273;-78
2021/09/12 07:21:50;;;;;;;5.13;4.00;;;21.70;99.90;;;;;;5019690;28;20215;-77
2021/09/12 07:24:16;;;;;;;4.80;2.90;;;21.90;99.90;;;;;;5019119;28;20793;-77
2021/09/12 07:26:42;;;;;;;4.60;2.70;;;22.00;99.90;;;;;;5001024;28;20719;-77
2021/09/12 07:29:07;;;;;;;4.73;2.50;;;22.20;99.90;;;;;;5007346;28;20202;-78
2021/09/12 07:31:33;;;;;;;4.00;2.83;;;22.40;99.90;;;;;;5020665;28;20174;-78
2021/09/12 07:34:02;;;;;;;8.90;2.40;;;22.60;99.90;;;;;;5003284;28;20194;-78
2021/09/12 07:36:28;;;;;;;5.00;2.57;;;22.80;99.90;;;;;;4998249;28;20217;-78
2021/09/12 07:38:54;;;;;;;5.60;2.73;;;23.20;99.90;;;;;;5015288;28;21092;-78
2021/09/12 07:41:20;;;;;;;5.27;2.10;;;23.40;99.90;;;;;;5018550;28;20580;-78
2021/09/12 07:43:45;;;;;;;7.43;2.60;;;23.60;99.90;;;;;;5000294;28;20218;-78
2021/09/12 07:46:11;;;;;;;2.70;2.00;;;23.80;99.90;;;;;;5018954;28;20174;-78
2021/09/12 07:48:37;;;;;;;3.63;2.13;;;23.90;99.90;;;;;;4999186;28;20655;-78
2021/09/12 07:51:03;;;;;;;3.50;2.43;;;24.00;99.90;;;;;;5023559;28;20174;-78
2021/09/12 07:53:29;;;;;;;4.53;2.40;;;24.10;99.90;;;;;;5019508;28;20210;-77
2021/09/12 07:55:55;;;;;;;3.00;1.83;;;24.40;99.90;;;;;;5002897;28;20170;-78
2021/09/12 07:58:20;;;;;;;3.60;2.30;;;24.80;99.90;;;;;;5014557;28;20572;-78
2021/09/12 08:00:46;;;;;;;4.43;2.20;;;25.20;99.90;;;;;;5021582;28;20170;-77
2021/09/12 08:03:12;;;;;;;2.40;2.20;;;25.40;99.90;;;;;;5026889;28;20196;-77
2021/09/12 08:05:39;;;;;;;2.90;1.63;;;25.50;99.90;;;;;;5025694;28;20198;-77
2021/09/12 08:08:05;;;;;;;3.93;2.00;;;25.60;99.90;;;;;;5004927;28;20576;-78
2021/09/12 08:10:31;;;;;;;4.60;2.13;;;25.60;99.90;;;;;;4999311;28;20561;-76
2021/09/12 08:12:57;;;;;;;2.30;2.10;;;25.60;99.90;;;;;;5017187;28;20198;-77
2021/09/12 08:15:22;;;;;;;3.43;2.03;;;25.60;99.90;;;;;;5017509;28;20529;-76
2021/09/12 08:17:48;;;;;;;2.93;1.83;;;25.70;99.90;;;;;;5017752;28;20262;-77
2021/09/12 08:20:14;;;;;;;5.40;2.03;;;25.70;99.90;;;;;;5020461;28;20182;-77
2021/09/12 08:22:40;;;;;;;3.80;1.77;;;25.80;99.90;;;;;;5018482;28;20190;-77
2021/09/12 08:25:06;;;;;;;3.27;2.17;;;25.90;99.90;;;;;;5016801;28;20677;-77
2021/09/12 08:27:32;;;;;;;2.67;1.70;;;25.90;99.90;;;;;;5016314;28;20178;-77
2021/09/12 08:29:58;;;;;;;4.33;1.50;;;25.90;99.90;;;;;;4999794;28;20708;-76
2021/09/12 08:32:23;;;;;;;2.20;1.20;;;26.00;99.90;;;;;;5019362;28;20167;-76
2021/09/12 08:34:49;;;;;;;1.67;1.30;;;26.00;99.90;;;;;;5019351;28;20565;-77
2021/09/12 08:37:15;;;;;;;4.60;1.30;;;26.10;99.90;;;;;;5017825;28;20169;-76
2021/09/12 08:39:43;;;;;;;3.07;1.20;;;26.10;99.90;;;;;;5019223;28;20167;-77
2021/09/12 08:42:16;;;;;;;2.27;1.00;;;26.10;99.90;;;;;;5019466;28;20577;-77
2021/09/12 08:44:47;;;;;;;3.33;1.10;;;26.10;99.90;;;;;;5023500;28;20573;-76
2021/09/12 08:47:14;;;;;;;2.97;1.27;;;26.20;99.90;;;;;;5000473;28;20612;-76
2021/09/12 08:49:41;;;;;;;2.40;1.03;;;26.60;99.90;;;;;;5019107;28;20708;-76
2021/09/12 08:52:07;;;;;;;2.13;0.90;;;27.20;99.90;;;;;;5017998;28;20573;-76
2021/09/12 08:54:33;;;;;;;1.97;0.90;;;27.90;99.90;;;;;;5021320;28;20603;-76
2021/09/12 08:56:58;;;;;;;1.30;0.70;;;28.40;99.90;;;;;;5018782;28;20170;-76
2021/09/12 08:59:29;;;;;;;1.30;0.70;;;28.80;99.90;;;;;;5020484;28;20664;-76
2021/09/12 09:01:58;;;;;;;2.30;1.03;;;29.00;99.90;;;;;;5022166;28;20174;-77
2021/09/12 09:04:31;;;;;;;2.23;0.90;;;29.30;99.90;;;;;;5022941;28;20605;-77
2021/09/12 09:07:04;;;;;;;1.30;0.70;;;29.70;99.90;;;;;;5024402;28;20608;-77
2021/09/12 09:09:41;;;;;;;2.40;0.97;;;30.40;99.90;;;;;;5024546;28;21207;-77
2021/09/12 09:12:36;;;;;;;3.60;1.33;;;30.90;99.90;;;;;;5015673;28;20565;-75
2021/09/12 09:15:19;;;;;;;2.10;0.80;;;31.30;99.90;;;;;;5000453;28;21398;-76
2021/09/12 09:17:51;;;;;;;3.53;1.03;;;31.80;98.90;;;;;;5017706;28;20567;-75
2021/09/12 09:20:32;;;;;;;2.23;0.90;;;32.00;96.40;;;;;;5000666;28;20569;-75
2021/09/12 09:23:03;;;;;;;1.90;0.90;;;31.80;95.00;;;;;;5018682;28;20612;-75
2021/09/12 09:25:32;;;;;;;2.60;0.90;;;31.50;94.20;;;;;;5017213;28;20655;-75
2021/09/12 09:28:06;;;;;;;2.70;1.00;;;31.20;93.60;;;;;;4994747;28;20665;-75
2021/09/12 09:31:05;;;;;;;2.90;0.90;;;31.20;93.30;;;;;;5012962;28;20623;-74
2021/09/12 09:33:32;;;;;;;2.03;0.90;;;31.30;93.70;;;;;;5015525;28;20615;-75
2021/09/12 09:36:06;;;;;;;2.50;1.13;;;31.50;93.50;;;;;;5016942;28;20631;-76
2021/09/12 09:38:34;;;;;;;3.57;1.20;;;31.70;92.50;;;;;;5016286;28;20562;-76
2021/09/12 09:41:12;;;;;;;2.33;0.97;;;31.90;92.20;;;;;;5017711;28;20574;-76
2021/09/12 09:43:49;;;;;;;2.80;1.73;;;32.10;91.50;;;;;;5017795;28;20611;-76
2021/09/12 09:46:41;;;;;;;2.50;1.40;;;32.40;90.50;;;;;;5019817;28;21143;-76
2021/09/12 09:49:27;;;;;;;3.40;1.90;;;32.80;90.70;;;;;;5018613;28;20639;-76
2021/09/12 09:52:00;;;;;;;1.80;1.30;;;33.10;89.70;;;;;;5015996;28;20921;-76
2021/09/12 09:54:31;;;;;;;4.33;1.20;;;33.50;89.50;;;;;;5014593;28;20615;-76
2021/09/12 09:56:57;;;;;;;1.80;0.90;;;34.00;87.40;;;;;;5013876;28;20580;-76
2021/09/12 09:59:27;;;;;;;1.90;1.10;;;34.20;85.50;;;;;;5015264;28;20627;-76
2021/09/12 10:01:54;;;;;;;1.80;1.33;;;34.20;82.80;;;;;;4996950;28;20566;-77
2021/09/12 10:04:22;;;;;;;1.70;0.97;;;34.00;79.70;;;;;;4997845;28;20600;-76
2021/09/12 10:06:49;;;;;;;2.30;0.90;;;33.70;79.00;;;;;;5018738;28;21122;-75
2021/09/12 10:09:17;;;;;;;2.57;1.00;;;33.60;78.50;;;;;;5016693;28;20635;-75
2021/09/12 10:11:54;;;;;;;2.80;1.20;;;33.40;76.90;;;;;;5013520;28;20566;-76
2021/09/12 10:14:29;;;;;;;2.57;1.23;;;33.20;75.00;;;;;;5013700;28;20613;-77
2021/09/12 10:16:59;;;;;;;1.80;1.00;;;32.90;75.40;;;;;;4998939;28;20565;-76
2021/09/12 10:19:36;;;;;;;3.60;1.20;;;32.70;75.20;;;;;;5023581;28;20587;-77
2021/09/12 10:22:13;;;;;;;3.67;1.20;;;32.40;73.70;;;;;;5005176;28;20585;-76
2021/09/12 10:25:00;;;;;;;2.93;1.07;;;32.10;74.00;;;;;;5020929;28;20643;-76
2021/09/12 10:27:45;;;;;;;1.70;0.93;;;31.80;74.80;;;;;;5023674;28;20606;-77
2021/09/12 10:30:38;;;;;;;3.00;0.83;;;31.60;73.90;;;;;;5021924;28;20678;-76
2021/09/12 10:33:07;;;;;;;2.50;0.93;;;31.40;74.20;;;;;;5004023;28;21188;-76
2021/09/12 10:35:44;;;;;;;2.93;0.90;;;31.40;74.40;;;;;;5023637;28;20574;-76
2021/09/12 10:38:11;;;;;;;2.30;0.80;;;31.30;73.50;;;;;;5002981;28;21057;-76
2021/09/12 10:40:49;;;;;;;1.60;0.73;;;31.40;74.80;;;;;;5020769;28;20575;-76
2021/09/12 10:43:24;;;;;;;2.63;1.40;;;31.40;73.60;;;;;;5016195;28;20594;-76
2021/09/12 10:46:09;;;;;;;2.90;1.90;;;31.40;73.70;;;;;;5017880;28;20587;-76
2021/09/12 10:48:38;;;;;;;2.37;1.10;;;31.50;73.20;;;;;;5004985;28;20598;-77
2021/09/12 10:51:28;;;;;;;1.50;0.90;;;31.40;71.70;;;;;;5024869;28;20593;-77
2021/09/12 10:53:59;;;;;;;1.93;0.90;;;31.30;70.60;;;;;;5010408;28;20694;-77
2021/09/12 10:56:25;;;;;;;1.50;0.87;;;31.30;71.50;;;;;;5021018;28;20578;-77
2021/09/12 10:58:56;;;;;;;2.17;1.10;;;31.40;71.40;;;;;;5020879;28;20715;-77
2021/09/12 11:01:42;;;;;;;3.07;0.80;;;31.50;65.90;;;;;;5021437;28;20610;-77
2021/09/12 11:04:08;;;;;;;1.90;0.70;;;31.80;68.40;;;;;;5023934;28;20605;-77
2021/09/12 11:06:42;;;;;;;2.10;0.77;;;32.00;68.50;;;;;;5022162;28;20600;-77
2021/09/12 11:09:23;;;;;;;1.30;0.70;;;32.10;67.20;;;;;;5004678;28;20627;-76
2021/09/12 11:11:54;;;;;;;1.43;0.70;;;32.10;66.90;;;;;;5007396;28;20579;-77
2021/09/12 11:14:20;;;;;;;1.73;0.90;;;32.20;67.10;;;;;;5073478;23;20668;-76
2021/09/12 11:16:47;;;;;;;1.50;0.70;;;32.30;66.70;;;;;;5069542;28;20601;-77
2021/09/12 11:19:13;;;;;;;1.97;0.70;;;32.50;66.50;;;;;;5087713;28;20518;-77
2021/09/12 11:21:45;;;;;;;1.70;0.80;;;32.60;66.20;;;;;;5100881;28;20735;-77
2021/09/12 11:24:26;;;;;;;3.90;1.30;;;32.60;62.80;;;;;;5103584;28;20193;-77
2021/09/12 11:26:58;;;;;;;2.40;1.07;;;32.60;63.00;;;;;;5102783;28;20587;-77
2021/09/12 11:29:32;;;;;;;3.07;0.97;;;32.50;61.00;;;;;;5086465;28;20623;-77
2021/09/12 11:32:05;;;;;;;1.70;1.27;;;32.20;60.30;;;;;;5107323;28;20574;-76
2021/09/12 11:34:33;;;;;;;2.80;1.83;;;31.90;59.90;;;;;;5091931;28;20597;-78
2021/09/12 11:37:01;;;;;;;3.53;1.30;;;31.60;59.40;;;;;;5111747;28;20604;-77
2021/09/12 11:39:29;;;;;;;2.20;0.90;;;31.30;59.60;;;;;;5104654;28;20585;-77
2021/09/12 11:41:59;;;;;;;1.47;0.70;;;31.10;60.00;;;;;;5104565;28;20568;-77
2021/09/12 11:44:39;;;;;;;2.33;1.37;;;31.00;60.40;;;;;;5108681;28;21010;-77
2021/09/12 11:47:26;;;;;;;2.00;1.40;;;30.90;59.90;;;;;;5101307;28;20586;-77
2021/09/12 11:49:59;;;;;;;3.40;1.80;;;30.70;60.00;;;;;;5072954;28;20632;-76
2021/09/12 11:52:33;;;;;;;3.43;2.10;;;30.60;60.30;;;;;;5068548;28;20632;-77
2021/09/12 11:55:16;;;;;;;6.53;3.30;;;30.50;60.70;;;;;;5065079;28;20610;-77
2021/09/12 11:57:42;;;;;;;4.83;1.73;;;30.40;60.10;;;;;;5086590;28;20594;-77
2021/09/12 12:00:14;;;;;;;1.63;1.00;;;30.30;61.00;;;;;;5085433;28;20624;-78
2021/09/12 12:02:43;;;;;;;1.97;1.00;;;30.20;60.90;;;;;;5092474;28;20172;-77
2021/09/12 12:05:09;;;;;;;3.50;1.80;;;30.10;60.80;;;;;;5084829;28;20609;-76
2021/09/12 12:07:36;;;;;;;1.80;1.43;;;29.90;60.50;;;;;;5084166;28;20574;-77
2021/09/12 12:10:03;;;;;;;1.73;0.80;;;29.70;60.30;;;;;;5076327;28;20626;-77
2021/09/12 12:12:36;;;;;;;2.47;0.90;;;29.50;60.40;;;;;;5075154;28;20590;-77
2021/09/12 12:15:05;;;;;;;2.20;1.30;;;29.40;61.00;;;;;;5079392;28;20730;-77
2021/09/12 12:17:31;;;;;;;2.50;1.10;;;29.50;60.10;;;;;;5084480;28;20172;-77
2021/09/12 12:19:57;;;;;;;2.73;1.20;;;29.60;62.30;;;;;;5078000;28;20563;-77
2021/09/12 12:22:34;;;;;;;4.47;1.10;;;29.70;62.10;;;;;;5089068;28;20613;-77
2021/09/12 12:25:00;;;;;;;1.50;0.87;;;29.70;61.30;;;;;;5085115;28;20188;-77
2021/09/12 12:27:26;;;;;;;2.23;0.97;;;29.50;61.00;;;;;;5081768;28;20629;-78
2021/09/12 12:30:05;;;;;;;2.35;1.67;;;29.40;61.20;;;;;;5079609;28;20727;-77
2021/09/12 12:32:32;;;;;;;1.87;1.20;;;29.10;61.60;;;;;;5083311;28;20168;-77
2021/09/12 12:35:01;;;;;;;1.80;1.40;;;29.10;62.00;;;;;;5069842;28;20731;-78
2021/09/12 12:37:33;;;;;;;2.23;1.53;;;29.10;61.70;;;;;;5085069;28;20569;-78
2021/09/12 12:40:06;;;;;;;2.53;1.40;;;29.00;61.70;;;;;;5084618;28;20718;-79
2021/09/12 12:42:34;;;;;;;2.30;0.90;;;28.80;61.50;;;;;;5080984;28;20665;-78
2021/09/12 12:45:20;;;;;;;1.50;0.73;;;28.70;61.50;;;;;;5085199;28;20611;-79
2021/09/12 12:47:47;;;;;;;1.53;0.70;;;28.50;61.80;;;;;;5085495;28;20590;-79
2021/09/12 12:50:27;;;;;;;2.47;1.40;;;28.30;61.70;;;;;;5084180;28;20719;-78
2021/09/12 12:55:44;;;;;;;3.00;1.20;;;27.50;63.50;;;;;;5088302;28;20570;-78